METAR AND TAF INFORMATION
METAR FOR AGGH
ADDS - METARS form results

(0616 UTC 18 January 2020)
Data provider http://aviationweather.gov/metar/data/
 
METAR text: AGGH 180600Z 11005KT 9999 FEW020 33/24 Q1001
Conditions at: AGGH (HONIARA/HENDERSO, SB) observed 0600 UTC 18 January 2020
Temperature: 33.0°C (91°F)
Dewpoint: 24.0°C (75°F) [RH = 59%]
Pressure (altimeter): 29.56 inches Hg (1001.0 mb)
Winds: from the ESE (110 degrees) at 6 MPH (5 knots; 2.6 m/s)
Visibility: 6 or more miles (10+ km)
Ceiling: at least 12,000 feet AGL
Clouds: few clouds at 2000 feet AGL
Weather: no significant weather observed at this time

METAR text: AGGH 180530Z 09007KT 9999 FEW020 33/24 Q1001
Conditions at: AGGH (HONIARA/HENDERSO, SB) observed 0530 UTC 18 January 2020
Temperature: 33.0°C (91°F)
Dewpoint: 24.0°C (75°F) [RH = 59%]
Pressure (altimeter): 29.56 inches Hg (1001.0 mb)
Winds: from the E (90 degrees) at 8 MPH (7 knots; 3.6 m/s)
Visibility: 6 or more miles (10+ km)
Ceiling: at least 12,000 feet AGL
Clouds: few clouds at 2000 feet AGL
Weather: no significant weather observed at this time

Forecast for: AGGH (HONIARA/HENDERSO, SB)
Text: TAF AGGH 180505Z 1806/1906 27010KT 9999 FEW018 T 31 28 26 24 Q 1001 1003 1004 1002
Forecast period: 0600 UTC 18 January 2020 to 0600 UTC 19 January 2020
Forecast type: FROM: standard forecast or significant change
Winds: from the W (270 degrees) at 12 MPH (10 knots; 5.1 m/s)
Visibility: 6 or more miles 10+ km)
Ceiling: at least 12,000 feet AGL
Clouds: few clouds at 1800 feet AGL
Weather: no significant weather forecast for this period

 AIRPORT MAP

 RUNWAY INFORMATION
Runway 06 Runway length 7218 ft Runway width 148 ft
Runway elevation 28 ft Runway displaced threshold 0 ft Runway heading 68
Runway 24 Runway length 7218 ft Runway width 148 ft
Runway elevation 14 ft Runway displaced threshold 0 ft Runway heading 248

 AIRPORT FREQUENCIES
Type AFIS Name INFO Frequency 118.1 MHZ
Type INFO Name INFO Frequency 342.5 MHZ

 AIRPORT NEAR NAVIGATION AIDS
Type VOR-DME Name Honiara Frequency 112600 KHZ
Type NDB Name Honiara Frequency 348 KHZ



Powered by Virtual Airlines Manager [v2.6.2]